Bei Facebook empfehlenBei Twitter postenGoogle plusPinterest

Das Wetter im Erzgebirge am 01.08.2015

Wetter und Klima am 01.08.2015 Holzhau im Erzgebirge (630m ü.NN)
Letzte gemessene Temperatur und Uhrzeit der Messung23:45:00 Uhr14.40 °C
Temperatur (Maximum / Höchstwert) und Uhrzeit der Messung15:00:00 Uhr25.40 °C
Temperatur (Minimum / Tiefstwert) und Uhrzeit der Messung02:45:005.80 °C
Errechneter Absolutwert der Temperaturschwankungen zwischen Tmin und Tmax des Tages19.60 K
Errechnete Tagesmitteltemperatur15.83854 °C
Gesamt - Niederschlag des Tages (in flüssiger Form)0.00 Liter / m²
Luftdruck (Maximum / Höchstwert) und Zeitpunkt der Messung00:15:00 Uhr1016.60 hPa
Luftdruck (Minimum / Tiefstwert) und Zeitpunkt der Messung16:15:00 Uhr1014.00 hPa
Errechneter Absolutwert der Luftdruckschwankungen des Tages2.60 hPa
Höchste gemessene Windgeschwindigkeit und Uhrzeit der Messung23:45:00 Uhr0.00 km/h
Errechnete Windhäufigkeit in Relation zu den Messwerten des Tages0.00000 %
Niedrigste Windkühle (Windchill) und Zeitpunkt der Messung02:45:00 Uhr5.80 °C
Taupunkt (Maximum / Höchstwert) und Uhrzeit der Messung18:45:00 Uhr11.30 °C
Taupunkt (Minimum / Tiefstwert) und Uhrzeit der Messung02:45:003.60 °C
Anzahl der automatisch eingelesenen Messwerte 96

Detaillierte Wetter- und Klima- Messwerte für den 01.08.2015 in Holzhau im Erzgebirge (630m ü.NN)
ZeitTemperaturLuftdruckRel. LuftfeuchteWindWindrichtungWindchillTaupunktNiederschlag l/m²
23:45:0014.40 °C1015.60 hPa76.00 %10.20 °C 
23:30:0014.50 °C1015.60 hPa75.00 %10.10 °C 
23:15:0014.50 °C1015.50 hPa75.00 %10.10 °C 
23:00:0014.60 °C1015.40 hPa74.00 %10.00 °C 
22:45:0014.80 °C1015.30 hPa75.00 %10.40 °C 
22:30:0014.90 °C1015.50 hPa75.00 %10.50 °C 
22:15:0015.10 °C1015.40 hPa74.00 %10.50 °C 
22:00:0015.30 °C1015.50 hPa72.00 %10.30 °C 
21:45:0015.40 °C1015.40 hPa72.00 %10.40 °C 
21:30:0015.80 °C1015.10 hPa72.00 %10.80 °C 
21:15:0015.80 °C1014.90 hPa71.00 %10.60 °C 
21:00:0015.90 °C1014.50 hPa71.00 %10.70 °C 
20:45:0015.90 °C1014.40 hPa71.00 %10.70 °C 
20:30:0016.10 °C1014.40 hPa70.00 %10.60 °C 
20:15:0016.60 °C1014.30 hPa68.00 %10.70 °C 
20:00:0017.20 °C1014.40 hPa66.00 %10.80 °C 
19:45:0017.60 °C1014.30 hPa65.00 %10.90 °C 
19:30:0017.80 °C1014.30 hPa64.00 %10.90 °C 
19:15:0017.90 °C1014.20 hPa64.00 %11.00 °C 
19:00:0018.50 °C1014.60 hPa61.00 %10.80 °C 
18:45:0019.30 °C1014.50 hPa60.00 %11.30 °C 
18:30:0019.90 °C1014.60 hPa57.00 %11.10 °C 
18:15:0020.50 °C1014.40 hPa55.00 %11.20 °C 
18:00:0021.30 °C1014.50 hPa50.00 %10.50 °C 
17:45:0021.80 °C1014.40 hPa47.00 %10.00 °C 
17:30:0022.50 °C1014.40 hPa46.00 %10.30 °C 
17:15:0022.80 °C1014.30 hPa42.00 %9.20 °C 
17:00:0022.70 °C1014.30 hPa42.00 %9.10 °C 
16:45:0022.90 °C1014.40 hPa39.00 %8.20 °C 
16:30:0023.40 °C1014.30 hPa38.00 %8.30 °C 
16:15:0024.20 °C1014.00 hPa38.00 %9.00 °C 
16:00:0024.80 °C1014.10 hPa38.00 %9.50 °C 
15:45:0024.60 °C1014.20 hPa38.00 %9.30 °C 
15:30:0024.50 °C1014.20 hPa38.00 %9.30 °C 
15:15:0025.20 °C1014.40 hPa36.00 %9.10 °C 
15:00:0025.40 °C1014.50 hPa38.00 %10.10 °C 
14:45:0024.50 °C1014.50 hPa38.00 %9.30 °C 
14:30:0023.90 °C1014.50 hPa39.00 %9.10 °C 
14:15:0023.70 °C1014.60 hPa38.00 %8.50 °C 
14:00:0023.80 °C1014.60 hPa41.00 %9.80 °C 
13:45:0023.20 °C1014.80 hPa41.00 %9.20 °C 
13:30:0022.90 °C1015.00 hPa40.00 %8.60 °C 
13:15:0022.90 °C1015.10 hPa42.00 %9.30 °C 
13:00:0022.80 °C1015.00 hPa42.00 %9.20 °C 
12:45:0022.30 °C1015.00 hPa44.00 %9.50 °C 
12:30:0021.90 °C1014.70 hPa45.00 %9.40 °C 
12:15:0021.90 °C1015.10 hPa45.00 %9.40 °C 
12:00:0021.40 °C1015.10 hPa45.00 %9.00 °C 
11:45:0021.40 °C1015.20 hPa46.00 %9.30 °C 
11:30:0021.50 °C1015.20 hPa47.00 %9.70 °C 
11:15:0021.30 °C1015.20 hPa48.00 %9.90 °C 
11:00:0021.30 °C1015.20 hPa49.00 %10.20 °C 
10:45:0020.80 °C1015.10 hPa51.00 %10.30 °C 
10:30:0019.90 °C1015.20 hPa52.00 %9.80 °C 
10:15:0019.10 °C1015.30 hPa54.00 %9.60 °C 
10:00:0018.40 °C1015.20 hPa54.00 %8.90 °C 
09:45:0017.90 °C1015.10 hPa56.00 %9.00 °C 
09:30:0017.60 °C1014.90 hPa59.00 %9.50 °C 
09:15:0016.90 °C1014.70 hPa58.00 %8.60 °C 
09:00:0016.60 °C1014.70 hPa59.00 %8.60 °C 
08:45:0016.50 °C1014.70 hPa59.00 %8.50 °C 
08:30:0016.80 °C1014.90 hPa58.00 %8.50 °C 
08:15:0016.90 °C1014.70 hPa59.00 %8.80 °C 
08:00:0016.30 °C1014.90 hPa61.00 %8.80 °C 
07:45:0015.50 °C1015.00 hPa64.00 %8.70 °C 
07:30:0014.20 °C1015.00 hPa68.00 %8.40 °C 
07:15:0012.40 °C1015.00 hPa71.00 %7.30 °C 
07:00:0011.80 °C1014.90 hPa73.00 %7.10 °C 
06:45:0011.30 °C1015.00 hPa74.00 %6.80 °C 
06:30:0011.10 °C1015.00 hPa75.00 %6.80 °C 
06:15:0010.60 °C1015.10 hPa77.00 %6.70 °C 
06:00:0010.20 °C1014.90 hPa78.00 %6.50 °C 
05:45:009.80 °C1014.90 hPa81.00 %6.70 °C 
05:30:009.10 °C1015.20 hPa82.00 %6.20 °C 
05:15:008.40 °C1015.30 hPa84.00 %5.90 °C 
05:00:008.20 °C1015.30 hPa85.00 %5.80 °C 
04:45:007.90 °C1015.40 hPa86.00 %5.70 °C 
04:30:007.30 °C1015.50 hPa87.00 %5.30 °C 
04:15:006.60 °C1015.80 hPa87.00 %4.60 °C 
04:00:006.30 °C1016.00 hPa87.00 %4.30 °C 
03:45:006.10 °C1016.00 hPa87.00 %4.10 °C 
03:30:006.10 °C1016.20 hPa87.00 %4.10 °C 
03:15:006.10 °C1016.30 hPa87.00 %4.10 °C 
03:00:005.90 °C1016.40 hPa87.00 %3.90 °C 
02:45:005.80 °C1016.30 hPa86.00 %3.60 °C 
02:30:005.90 °C1016.40 hPa86.00 %3.70 °C 
02:15:005.90 °C1016.40 hPa85.00 %3.60 °C 
02:00:006.10 °C1016.20 hPa85.00 %3.80 °C 
01:45:006.30 °C1016.30 hPa85.00 %4.00 °C 
01:30:006.30 °C1016.10 hPa84.00 %3.80 °C 
01:15:006.40 °C1016.20 hPa84.00 %3.90 °C 
01:00:006.50 °C1016.50 hPa84.00 %4.00 °C 
00:45:006.60 °C1016.50 hPa83.00 %3.90 °C 
00:30:006.80 °C1016.50 hPa83.00 %4.10 °C 
00:15:007.00 °C1016.60 hPa82.00 %4.10 °C 
00:00:007.20 °C1016.40 hPa82.00 %4.30 °C 

Permanenter Link zu dieser Seite: Wetter im Erzgebirge am 01.08.2015
Performance-Info: Die Erstellung der Seite / Statistik(en) / Tabelle(n) erforderte 5 Datenbankserver-Abfrage(n) und dauerte 104 Millisekunden. (Dieser Messwert ist von der Gesamt-Auslastung des Servers abhängig.)
Erzgebirge - Wetter | Erzgebirge - Wetter (Mobilgeräte) | Komplette Klimadatenbank